Worst METAR reports worldwide for Flight Simulation

Low visibility

Station Wind Gust Vis(SM) Temp/Dew Baro
CYBX 5 0.13 17/17 29.87
CYBX 111900Z 22005KT 1/8SM FG VV002 17/17 A2987 RMK FG8 SLP118 DENSITY ALT 500FT
KQFW 1 0.25 24/26
KQFW 111910Z AUTO 14001KT 0400 // CLR 24/26 / RMK A02 TSNO
KQFU 1 0.25 23/23 29.96
KQFU 111910Z AUTO 26001KT 0400 FG CLR 23/23 A2996 RMK A02 TSNO
RJCC 4 0.25 21/21 29.73
RJCC 111900Z 16004KT 0400 R19R/0750V1300N R19L/1400VP2000U FG VV002 21/21 Q1007
PATC 18 0.25 8/8 29.94
PATC 111855Z AUTO 20018KT 140V270 M1/4SM FG VV002 09/08 A2994 RMK AO2 SLP140 T00870083

Station Wind Gust Vis(SM) Temp/Dew Baro
EGHQ 5 0.25 17/17 29.97
EGHQ 111850Z 35005KT 0400 R30/0375 FG VV/// 17/17 Q1015
RKSQ 1 0.25 23/23 29.93
RKSQ 111821Z 08001KT 0400 FG SCT004 OVC011 23/23 A2993 RMK CIG011
KQES 0.5 /
KQES 111910Z AUTO 0800 -SHRA FG OVC002 / / RMK A02 TSNO
YSCB 0 0.62 0/0 30.00
YSCB 111909Z AUTO 00000KT 1000 BR SCT001 M00/M00 Q1016
KAAF 13 40 0.75 24/22 30.04
KAAF 111911Z AUTO 06013G40KT 3/4SM +RA BR FEW018 BKN047 OVC070 24/22 A3004 RMK AO2 PK WND 03040/1905 PRESRR P0004 T02440222 TSNO
KQEQ 2 0.75 23/24 29.94
KQEQ 111910Z AUTO 10002KT 1200 BR SCT001 BKN018 23/24 A2994 RMK A02 TSNO
CYAW 7 0.75 19/19 30.03
CYAW 111900Z 17007KT 3/4SM BR OVC001 19/19 A3003 RMK ST8 DA818FT VIS VRB 1/2-1 SLP168
K17J 4 20 0.75 23/22 30.01
K17J 111855Z AUTO 35004G20KT 3/4SM +TSRA BR BKN008 OVC016 23/23 A3001 RMK AO2 LTG DSNT ALQDS P0112 T02330229
KTKX 5 12 0.75 27/26 30.02
KTKX 111815Z AUTO 24005G12KT 3/4SM -DZ BKN002 OVC022 27/26 A3002 RMK AO2
VIJP 0 0.93 26/26 29.56
VIJP 111900Z 00000KT 1500 RMID/2000 R09/2000 -TSRA BKN030 FEW035CB OVC090 26/26 Q1001 NOSIG
EIWF 4 0.93 16/15 30.00
EIWF 111900Z 18004KT 1500 BR BKN002 16/15 Q1016
DAAJ 20 0.93 31/10 30.03
DAAJ 111900Z 09020KT 1500 BLSA SCT046 31/10 Q1017
RKNR 2 0.99 20/20 30.09
RKNR 111820Z 23002KT 1600 BR SCT005 BKN015 20/20 A3009 RMK CIG015
KCCA 14 26 1 25/23 29.99
KCCA 111915Z AUTO 32014G26KT 1SM VCTS RA BKN004 OVC050 25/23 A2999 RMK AO2
KMGM 9 1 26/18 29.99
KMGM 111912Z 10009KT 1SM +TSRA BKN018 BKN044 OVC090 27/18 A2999 RMK AO2 PK WND 01038/1854 WSHFT 1842 LTG DSNT ALQDS P0078 T02670183
CYSJ 11 1 20/20 29.95
CYSJ 111900Z 21011KT 1SM R23/6000FT/U BR OVC002 20/20 A2995 RMK ST8 SLP145 DENSITY ALT 1000FT
PAVD 4 1 11/10 30.06
PAVD 111856Z 23004KT 1SM BR BKN002 OVC010 11/11 A3006 RMK AO2 RAE30 SLP176 RAE1759 P0000 T01110106
PASY 19 23 1 9/9 29.68
PASY 111856Z 01019G23KT 1SM BR VV003 09/09 A2968 RMK AO2A VIS N 1/2 SLP057 SLP ESTMD T00940091 RVRNO PNO $
KVKY 8 1 26/24 30.06
KVKY 111855Z AUTO 09008KT 1SM HZ BKN004 OVC007 26/24 A3006 RMK A01
NZCH 4 1.06 1/1 29.79
NZCH 111900Z AUTO 22004KT 1700 BCFG FEW007/// 01/01 Q1009 BECMG 9999 NSW
ZYTL 6 1.24 25/25 29.82
ZYTL 111900Z 11003MPS 2000 BR FEW002 25/25 Q1010 NOSIG
VEGY 0 1.24 28/26 29.53
VEGY 111900Z 00000KT 2000 -RA SCT018 FEW030CB OVC080 28/26 Q1000
SCIP 18 1.24 17/16 29.88
SCIP 111900Z 32018KT 2000 +SHRA SCT010 BKN015 17/16 Q1012 NOSIG
SBCR 6 1.24 34/13 29.76
SBCR 111900Z 03006KT 2000 FU NSC 34/13 Q1008
FQLC 6 1.24 14/2 30.21
FQLC 111900Z 15006KT 2000 FU SCN 14/02 Q1023
PAIG 0 1.25 10/10 29.95
PAIG 111905Z AUTO 00000KT 1 1/4SM BR OVC003 10/10 A2995 RMK AO2 VIS 3/4V3 $
KMAI 31 37 1.5 23/22 30.03
KMAI 111912Z AUTO 05031G37KT 1 1/2SM +TSRA BR SCT012 BKN022 OVC048 24/22 A3003 RMK AO2 PK WND 05037/1911 WSHFT 1851 LTG DSNT ALQDS RAB00 PRESRR P0024 T02390222
CYQI 9 1.5 19/19 30.00
CYQI 111900Z 17009KT 1 1/2SM BR VV002 19/19 A3000 RMK FG8 SLP161 DENSITY ALT 600FT
KASD 4 14 1.5 30/24 30.01
KASD 111856Z AUTO 28004G14KT 1 1/2SM +RA FEW027 BKN041 OVC065 30/24 A3001 RMK AO2 RAB54 P0009 T03000244
VIDP 5 1.55 30/27 29.47
VIDP 111900Z 24005KT 2500 BR SCT030 BKN100 30/27 Q0998 NOSIG
VEPT 6 1.55 26/24 29.50
VEPT 111900Z 26006KT 2500 BR SCT016 FEW030CB BKN100 26/24 Q0999 NOSIG
VEGT 5 1.55 29/29 29.56
VEGT 111900Z 19005KT 2500 -RA FEW010 SCT018 FEW025CB BKN090 29/29 Q1001 NOSIG
VABB 9 1.55 28/26 29.70
VABB 111900Z 23009KT 2500 HZ SCT018 FEW030CB BKN090 28/26 Q1006 NOSIG
USTR 12 1.55 14/13 29.50
USTR 111900Z 34006MPS 2500 R30/P2000 -DZ BR OVC003 14/13 Q0999 R30/290060 R21/290060 TEMPO 0300 FG VV002 RMK QBB110 QFE740/0987
RKSI 4 1.55 23/21 29.88
RKSI 111900Z 04004KT 2500 BR BKN015 BKN030 23/21 Q1012 NOSIG
KFNL 6 1.75 34/8 30.01
KFNL 111913Z 12006KT 1 3/4SM HZ CLR 34/08 A3001 RMK AO2 VIS 3/4V5 PNO $
KRKR 12 17 1.75 21/19 30.06
KRKR 111855Z AUTO 25012G17KT 1 3/4SM +TSRA BKN041 OVC048 21/19 A3006 RMK AO2 VIS 1/4V5 LTG DSNT ALQS
LFMT 3 1.8 24/23 29.94
LFMT 111900Z AUTO 19003KT 150V220 2900 BR VV/// 24/23 Q1014 TEMPO BKN006 BECMG 9999 NSW
VOTV 4 1.86 28/26 29.85
VOTV 111900Z 34004KT 3000 BR SCT015 28/26 Q1011 NOSIG
VOMM 2 1.86 28/27 29.73
VOMM 111900Z VRB02KT 3000 -TSRA SCT018 FEW025CB OVC080 28/27 Q1007 TEMPO 2000 TSRA
VOCL 1 1.86 24/24 29.85
VOCL 111900Z 01001KT 3000 BR FEW004 SCT012 FEW025CB BKN080 24/24 Q1011 NOSIG
VOCI 0 1.86 25/24 29.85
VOCI 111900Z 00000KT 3000 BR SCT012 BKN080 25/24 Q1011 NOSIG
VIAR 0 1.86 31/28 29.47
VIAR 111900Z 00000KT 3000 BR SCT100 31/28 Q0998 NOSIG
VANP 6 1.86 26/24 29.68
VANP 111900Z 26006KT 3000 HZ SCT015 BKN080 26/24 Q1005 NOSIG
USCC 14 1.86 12/12 29.62
USCC 111900Z 33007MPS 3000 -SHRA BR BKN008CB 12/12 Q1003 R27/290050 NOSIG RMK QFE732